createdAt,value
2018-06-28T00:02:24.863Z,87.50
2018-06-28T00:04:54.424Z,87.80
2018-06-28T00:07:23.559Z,87.70
2018-06-28T00:09:53.293Z,87.90
2018-06-28T00:12:22.555Z,87.80
2018-06-28T00:14:51.557Z,88.00
2018-06-28T00:17:20.664Z,88.10
2018-06-28T00:19:50.408Z,88.10
2018-06-28T00:22:19.557Z,88.10
2018-06-28T00:24:48.648Z,88.00
2018-06-28T00:27:17.733Z,88.10
2018-06-28T00:29:46.845Z,88.40
2018-06-28T00:32:15.940Z,88.40
2018-06-28T00:34:45.140Z,88.40
2018-06-28T00:37:14.875Z,88.60
2018-06-28T00:39:44.014Z,88.70
2018-06-28T00:42:13.565Z,89.00
2018-06-28T00:44:42.917Z,89.30
2018-06-28T00:47:12.037Z,89.30
2018-06-28T00:49:41.644Z,89.40
2018-06-28T00:52:10.753Z,89.50
2018-06-28T00:54:40.430Z,90.00
2018-06-28T00:57:09.449Z,89.80
2018-06-28T00:59:38.612Z,90.00
2018-06-28T01:02:07.816Z,90.00
2018-06-28T01:04:36.992Z,90.00
2018-06-28T01:07:06.212Z,90.00
2018-06-28T01:09:35.800Z,90.00
2018-06-28T01:12:05.018Z,90.10
2018-06-28T01:14:34.626Z,90.00
2018-06-28T01:17:03.836Z,90.10
2018-06-28T01:19:33.244Z,90.10
2018-06-28T01:22:02.340Z,90.00
2018-06-28T01:24:31.410Z,89.90
2018-06-28T01:27:00.645Z,89.90
2018-06-28T01:29:30.263Z,89.90
2018-06-28T01:31:59.472Z,90.00
2018-06-28T01:34:28.553Z,90.30
2018-06-28T01:36:58.115Z,90.10
2018-06-28T01:39:27.547Z,90.10
2018-06-28T01:43:09.737Z,90.20
2018-06-28T01:45:38.763Z,90.30
2018-06-28T01:48:07.921Z,90.50
2018-06-28T01:50:37.035Z,90.40
2018-06-28T01:53:06.508Z,90.40
2018-06-28T01:55:35.554Z,90.40
2018-06-28T01:58:04.660Z,90.30
2018-06-28T02:00:34.801Z,90.40
2018-06-28T02:03:04.464Z,90.40
2018-06-28T02:05:34.013Z,90.40
2018-06-28T02:08:04.177Z,90.30
2018-06-28T02:10:33.281Z,90.30
2018-06-28T02:13:02.381Z,90.30
2018-06-28T02:15:31.473Z,90.20
2018-06-28T02:18:00.486Z,90.20
2018-06-28T02:20:29.701Z,90.30
2018-06-28T02:22:59.273Z,90.30
2018-06-28T02:25:28.367Z,90.40
2018-06-28T02:27:57.494Z,90.40
2018-06-28T02:30:26.449Z,90.60
2018-06-28T02:32:55.533Z,90.80
2018-06-28T02:35:24.605Z,90.80
2018-06-28T02:37:54.105Z,90.80
2018-06-28T02:40:23.875Z,90.80
2018-06-28T02:42:53.057Z,90.80
2018-06-28T02:45:22.591Z,91.00
2018-06-28T02:47:51.649Z,90.90
2018-06-28T02:50:21.227Z,90.90
2018-06-28T02:52:50.751Z,90.90
2018-06-28T02:55:19.853Z,91.20
2018-06-28T02:57:48.949Z,91.00
2018-06-28T03:00:18.952Z,91.00
2018-06-28T03:02:48.497Z,91.10
2018-06-28T03:05:17.581Z,91.00
2018-06-28T03:07:46.667Z,91.20
2018-06-28T03:10:15.673Z,91.30
2018-06-28T03:12:45.161Z,91.20
2018-06-28T03:15:14.075Z,91.30
2018-06-28T03:17:43.119Z,91.30
2018-06-28T03:20:12.805Z,91.30
2018-06-28T03:22:41.933Z,91.30
2018-06-28T03:25:11.042Z,91.40
2018-06-28T03:27:40.045Z,91.50
2018-06-28T03:30:09.311Z,91.40
2018-06-28T03:32:38.352Z,91.60
2018-06-28T03:35:07.430Z,91.80
2018-06-28T03:37:36.956Z,92.00
2018-06-28T03:40:06.709Z,92.00
2018-06-28T03:42:35.718Z,92.10
2018-06-28T03:45:05.345Z,92.20
2018-06-28T03:47:34.428Z,92.20
2018-06-28T03:50:03.532Z,92.20
2018-06-28T03:52:32.628Z,92.20
2018-06-28T03:55:01.627Z,92.10
2018-06-28T03:57:30.865Z,92.10
2018-06-28T03:59:59.929Z,92.10
2018-06-28T04:02:29.012Z,92.20
2018-06-28T04:04:58.017Z,92.20
2018-06-28T04:07:27.520Z,92.30
2018-06-28T04:09:57.028Z,92.50
2018-06-28T04:12:26.641Z,92.30
2018-06-28T04:14:56.013Z,92.30
2018-06-28T04:17:25.108Z,92.30
2018-06-28T04:19:54.220Z,92.10
2018-06-28T04:22:28.763Z,92.20
2018-06-28T04:24:58.288Z,92.10
2018-06-28T04:27:27.968Z,92.60
2018-06-28T04:29:57.010Z,92.30
2018-06-28T04:32:26.249Z,92.50
2018-06-28T04:34:55.468Z,92.50
2018-06-28T04:37:24.530Z,92.30
2018-06-28T04:39:54.048Z,92.20
2018-06-28T04:42:23.237Z,92.40
2018-06-28T04:44:52.453Z,92.50
2018-06-28T04:47:21.660Z,92.50
2018-06-28T04:49:51.358Z,92.50
2018-06-28T04:52:20.393Z,92.50
2018-06-28T04:54:49.429Z,92.50
2018-06-28T04:57:18.440Z,92.10
2018-06-28T04:59:47.409Z,91.40
2018-06-28T05:02:16.513Z,91.90
2018-06-28T05:04:45.639Z,92.20
2018-06-28T05:07:14.787Z,92.40
2018-06-28T05:09:43.904Z,92.50
2018-06-28T05:12:13.081Z,92.20
2018-06-28T05:14:43.025Z,92.10
2018-06-28T05:17:13.245Z,92.00
2018-06-28T05:19:42.297Z,91.90
2018-06-28T05:22:11.400Z,92.10
2018-06-28T05:24:40.405Z,92.00
2018-06-28T05:27:09.632Z,91.80
2018-06-28T05:29:39.280Z,91.50
2018-06-28T05:32:08.442Z,91.60
2018-06-28T05:34:37.575Z,91.30
2018-06-28T05:37:06.749Z,91.50
2018-06-28T05:39:36.005Z,91.40
2018-06-28T05:42:05.387Z,91.40
2018-06-28T05:44:34.616Z,91.40
2018-06-28T05:47:03.792Z,91.70
2018-06-28T05:49:33.127Z,91.50
2018-06-28T05:52:02.351Z,91.30
2018-06-28T05:54:31.920Z,91.50
2018-06-28T05:57:01.665Z,91.40
2018-06-28T05:59:30.717Z,91.50
2018-06-28T06:02:00.502Z,91.50
2018-06-28T06:04:29.521Z,91.80
2018-06-28T06:06:59.385Z,91.40
2018-06-28T06:09:28.533Z,91.50
2018-06-28T06:11:57.554Z,91.70
2018-06-28T06:14:26.700Z,92.00
2018-06-28T06:16:56.205Z,91.90
2018-06-28T06:19:25.556Z,92.10
2018-06-28T06:21:55.744Z,92.20
2018-06-28T06:24:24.967Z,92.30
2018-06-28T06:26:54.022Z,92.60
2018-06-28T06:29:23.213Z,92.80
2018-06-28T06:31:52.212Z,92.80
2018-06-28T06:34:21.224Z,92.70
2018-06-28T06:36:50.270Z,92.90
2018-06-28T06:39:19.409Z,93.00
2018-06-28T06:41:49.089Z,93.20
2018-06-28T06:44:18.197Z,92.90
2018-06-28T06:46:47.238Z,93.10
2018-06-28T06:49:17.125Z,93.30
2018-06-28T06:51:46.574Z,93.50
2018-06-28T06:54:16.540Z,93.40
2018-06-28T06:56:46.161Z,93.40
2018-06-28T06:59:15.249Z,93.50
2018-06-28T07:01:44.313Z,93.40
2018-06-28T07:04:14.488Z,93.30
2018-06-28T07:06:43.764Z,93.50
2018-06-28T07:09:13.624Z,93.60
2018-06-28T07:11:42.711Z,93.60
2018-06-28T07:14:12.369Z,93.50
2018-06-28T07:16:41.455Z,93.50
2018-06-28T07:19:10.721Z,93.60
2018-06-28T07:21:39.896Z,93.50
2018-06-28T07:24:09.108Z,93.70
2018-06-28T07:26:38.433Z,93.30
2018-06-28T07:29:07.437Z,93.00
2018-06-28T07:31:37.114Z,92.90
2018-06-28T07:34:06.189Z,92.60
2018-06-28T07:36:35.746Z,92.60
2018-06-28T07:39:07.606Z,92.70
2018-06-28T07:41:36.614Z,92.60
2018-06-28T07:44:05.721Z,93.00
2018-06-28T07:46:34.996Z,92.80
2018-06-28T07:49:05.363Z,92.90
2018-06-28T07:51:34.640Z,93.00
2018-06-28T07:54:04.468Z,93.10
2018-06-28T07:56:33.541Z,93.30
2018-06-28T07:59:02.621Z,93.40
2018-06-28T08:01:32.595Z,93.70
2018-06-28T08:04:01.735Z,93.90
2018-06-28T08:06:30.856Z,93.90
2018-06-28T08:08:59.921Z,94.30
2018-06-28T08:11:29.061Z,94.50
2018-06-28T08:13:58.116Z,94.40
2018-06-28T08:16:27.205Z,93.50
2018-06-28T08:18:56.451Z,93.40
2018-06-28T08:21:25.511Z,93.40
2018-06-28T08:23:55.030Z,93.50
2018-06-28T08:26:24.329Z,93.40
2018-06-28T08:28:54.600Z,93.50
2018-06-28T08:31:23.829Z,93.60
2018-06-28T08:33:53.864Z,93.50
2018-06-28T08:36:23.610Z,93.50
2018-06-28T08:38:53.489Z,93.30
2018-06-28T08:41:22.920Z,92.90
2018-06-28T08:43:52.068Z,93.00
2018-06-28T08:46:21.200Z,93.60
2018-06-28T08:48:50.277Z,93.40
2018-06-28T08:51:19.993Z,93.40
2018-06-28T08:53:49.083Z,93.30
2018-06-28T08:56:17.988Z,93.20
2018-06-28T08:58:47.096Z,92.80
2018-06-28T09:01:16.141Z,92.10
2018-06-28T09:03:45.289Z,92.10
2018-06-28T09:06:14.372Z,91.80
2018-06-28T09:08:43.453Z,91.90
2018-06-28T09:11:13.188Z,92.10
2018-06-28T09:13:42.277Z,92.50
2018-06-28T09:16:11.554Z,92.50
2018-06-28T09:18:40.749Z,93.10
2018-06-28T09:21:09.958Z,92.80
2018-06-28T09:23:39.057Z,92.70
2018-06-28T09:26:08.517Z,92.80
2018-06-28T09:28:38.169Z,93.00
2018-06-28T09:31:08.249Z,93.00
2018-06-28T09:33:37.773Z,93.00
2018-06-28T09:36:07.004Z,93.00
2018-06-28T09:38:36.204Z,93.20
2018-06-28T09:41:05.359Z,93.20
2018-06-28T09:43:34.497Z,92.80
2018-06-28T09:46:04.188Z,92.70
2018-06-28T09:51:02.192Z,93.20
2018-06-28T09:53:31.768Z,93.00
2018-06-28T09:56:00.879Z,93.30
2018-06-28T09:58:29.932Z,93.60
2018-06-28T10:00:59.057Z,93.70
2018-06-28T10:03:28.484Z,93.70
2018-06-28T10:05:57.553Z,93.60
2018-06-28T10:08:26.620Z,93.50
2018-06-28T10:10:55.748Z,94.00
2018-06-28T10:13:25.028Z,94.10
2018-06-28T10:15:54.906Z,94.30
2018-06-28T10:18:24.573Z,94.20
2018-06-28T10:20:53.674Z,93.90
2018-06-28T10:23:23.141Z,93.90
2018-06-28T10:25:52.780Z,94.20
2018-06-28T10:28:22.383Z,94.50
2018-06-28T10:30:51.602Z,94.30
2018-06-28T10:33:20.781Z,94.50
2018-06-28T10:35:50.385Z,94.50
2018-06-28T10:38:20.037Z,94.10
2018-06-28T10:40:49.193Z,93.60
2018-06-28T10:43:18.384Z,93.60
2018-06-28T10:45:47.620Z,93.60
2018-06-28T10:50:46.408Z,93.60
2018-06-28T10:53:15.884Z,93.50
2018-06-28T10:55:45.829Z,93.40
2018-06-28T10:58:14.788Z,93.30
2018-06-28T11:00:44.246Z,93.10
2018-06-28T11:03:13.893Z,93.00
2018-06-28T11:05:43.020Z,92.90
2018-06-28T11:08:12.787Z,93.00
2018-06-28T11:10:42.070Z,93.30
2018-06-28T11:13:11.108Z,93.20
2018-06-28T11:15:40.239Z,93.10
2018-06-28T11:18:09.220Z,93.30
2018-06-28T11:20:38.289Z,93.70
2018-06-28T11:23:07.388Z,93.40
2018-06-28T11:25:36.473Z,93.80
2018-06-28T11:28:05.824Z,93.20
2018-06-28T11:30:34.980Z,93.50
2018-06-28T11:33:04.236Z,93.40
2018-06-28T11:35:34.064Z,93.40
2018-06-28T11:38:03.208Z,92.80
2018-06-28T11:43:02.205Z,93.20
2018-06-28T11:45:31.303Z,93.60
2018-06-28T11:48:00.621Z,93.20
2018-06-28T11:50:30.593Z,93.30
2018-06-28T11:53:00.029Z,93.50
2018-06-28T11:55:29.844Z,93.60
2018-06-28T11:57:58.920Z,93.70
2018-06-28T12:00:28.217Z,93.80
2018-06-28T12:02:57.844Z,93.90
2018-06-28T12:05:26.857Z,93.70
2018-06-28T12:07:55.928Z,93.80
2018-06-28T12:10:24.917Z,93.90
2018-06-28T12:12:54.037Z,94.10
2018-06-28T12:15:23.363Z,94.10
2018-06-28T12:17:52.683Z,93.90
2018-06-28T12:20:22.390Z,94.00
2018-06-28T12:22:51.497Z,94.20
2018-06-28T12:25:21.132Z,94.10
2018-06-28T12:27:50.116Z,94.10
2018-06-28T12:30:19.201Z,94.50
2018-06-28T12:32:48.200Z,94.60
2018-06-28T12:35:17.633Z,94.90
2018-06-28T12:37:46.768Z,95.30
2018-06-28T12:40:15.873Z,95.50
2018-06-28T12:42:45.500Z,95.70
2018-06-28T12:45:16.112Z,95.80
2018-06-28T12:48:00.493Z,96.00
2018-06-28T12:50:29.611Z,96.30
2018-06-28T12:53:00.468Z,96.40
2018-06-28T12:55:40.106Z,96.80
2018-06-28T12:58:09.176Z,96.70
2018-06-28T13:00:38.332Z,96.80
2018-06-28T13:03:08.337Z,96.90
2018-06-28T13:05:37.594Z,96.80
2018-06-28T13:08:07.069Z,96.80
2018-06-28T13:10:36.446Z,97.00
2018-06-28T13:13:05.664Z,97.10
2018-06-28T13:15:35.089Z,97.10
2018-06-28T13:18:04.560Z,97.10
2018-06-28T13:20:33.570Z,97.20
2018-06-28T13:23:02.572Z,97.30
2018-06-28T13:25:32.952Z,97.60
2018-06-28T13:28:02.059Z,97.90
2018-06-28T13:30:31.557Z,97.70
2018-06-28T13:33:01.503Z,97.60
2018-06-28T13:35:30.577Z,97.60
2018-06-28T13:37:59.699Z,97.50
2018-06-28T13:40:28.765Z,97.60
2018-06-28T13:42:58.329Z,97.60
2018-06-28T13:45:27.812Z,97.60
2018-06-28T13:47:57.577Z,97.30
2018-06-28T13:50:26.930Z,97.60
2018-06-28T13:52:57.048Z,97.40
2018-06-28T13:55:26.651Z,97.70
2018-06-28T13:57:55.988Z,97.20
2018-06-28T14:00:25.054Z,97.30
2018-06-28T14:02:54.460Z,97.30
2018-06-28T14:05:24.492Z,97.30
2018-06-28T14:07:53.752Z,97.20
2018-06-28T14:10:23.278Z,97.40
2018-06-28T14:12:52.575Z,97.40
2018-06-28T14:15:22.065Z,97.40
2018-06-28T14:17:51.766Z,97.60
2018-06-28T14:20:20.864Z,98.00
2018-06-28T14:22:50.502Z,97.80
2018-06-28T14:25:20.240Z,97.90
2018-06-28T14:27:49.864Z,97.90
2018-06-28T14:30:18.964Z,98.00
2018-06-28T14:32:48.053Z,98.20
2018-06-28T14:35:17.169Z,98.10
2018-06-28T14:37:46.161Z,98.30
2018-06-28T14:40:15.665Z,98.40
2018-06-28T14:42:44.700Z,98.60
2018-06-28T14:45:13.855Z,98.60
2018-06-28T14:47:42.848Z,98.40
2018-06-28T14:50:11.932Z,98.70
2018-06-28T14:52:41.000Z,98.40
2018-06-28T14:55:10.247Z,98.00
2018-06-28T14:57:39.272Z,97.90
2018-06-28T15:00:08.641Z,97.80
2018-06-28T15:02:38.081Z,98.30
2018-06-28T15:05:07.234Z,97.80
2018-06-28T15:07:36.233Z,97.90
2018-06-28T15:10:05.444Z,98.00
2018-06-28T15:12:35.362Z,98.00
2018-06-28T15:15:05.093Z,98.20
2018-06-28T15:17:34.060Z,98.10
2018-06-28T15:20:04.126Z,98.00
2018-06-28T15:22:33.252Z,98.20
2018-06-28T15:25:03.182Z,98.10
2018-06-28T15:27:32.367Z,97.90
2018-06-28T15:30:01.334Z,98.10
2018-06-28T15:32:30.457Z,98.50
2018-06-28T15:34:59.531Z,98.10
2018-06-28T15:37:29.174Z,98.10
2018-06-28T15:39:58.232Z,98.20
2018-06-28T15:42:27.780Z,98.30
2018-06-28T15:44:57.056Z,98.20
2018-06-28T15:47:26.037Z,98.10
2018-06-28T15:49:55.316Z,98.20
2018-06-28T15:52:24.797Z,98.30
2018-06-28T15:54:54.868Z,98.20
2018-06-28T15:57:23.982Z,98.20
2018-06-28T15:59:53.095Z,98.30
2018-06-28T16:02:22.237Z,98.30
2018-06-28T16:04:51.384Z,98.40
2018-06-28T16:07:20.564Z,98.50
2018-06-28T16:09:49.621Z,98.40
2018-06-28T16:12:19.701Z,98.10
2018-06-28T16:14:48.852Z,98.20
2018-06-28T16:17:18.077Z,98.10
2018-06-28T16:19:47.120Z,98.40
2018-06-28T16:22:16.225Z,98.40
2018-06-28T16:24:45.340Z,98.10
2018-06-28T16:27:14.533Z,98.20
2018-06-28T16:29:43.821Z,98.10
2018-06-28T16:32:12.825Z,98.20
2018-06-28T16:34:41.953Z,98.20
2018-06-28T16:39:40.115Z,98.30
2018-06-28T16:42:10.555Z,98.20
2018-06-28T16:44:39.521Z,98.40
2018-06-28T16:47:08.635Z,98.60
2018-06-28T16:49:37.645Z,98.70
2018-06-28T16:52:07.921Z,98.80
2018-06-28T16:54:37.660Z,98.80
2018-06-28T16:57:06.628Z,98.60
2018-06-28T16:59:35.839Z,98.70
2018-06-28T17:02:04.920Z,99.00
2018-06-28T17:04:34.057Z,99.00
2018-06-28T17:07:03.121Z,98.90
2018-06-28T17:09:32.287Z,98.90
2018-06-28T17:12:01.424Z,99.00
2018-06-28T17:14:31.067Z,98.80
2018-06-28T17:17:00.930Z,98.90
2018-06-28T17:19:31.504Z,99.00
2018-06-28T17:22:00.575Z,99.30
2018-06-28T17:24:29.646Z,99.00
2018-06-28T17:26:59.686Z,99.00
2018-06-28T17:29:28.811Z,99.10
2018-06-28T17:31:58.011Z,99.00
2018-06-28T17:34:27.180Z,99.10
2018-06-28T17:36:56.254Z,99.10
2018-06-28T17:39:25.575Z,99.00
2018-06-28T17:41:54.644Z,98.90
2018-06-28T17:44:23.984Z,99.00
2018-06-28T17:46:53.167Z,99.10
2018-06-28T17:49:22.239Z,99.00
2018-06-28T17:51:51.888Z,99.10
2018-06-28T17:54:21.352Z,99.20
2018-06-28T17:56:50.887Z,99.10
2018-06-28T17:59:20.429Z,99.20
2018-06-28T18:01:50.624Z,99.20
2018-06-28T18:04:20.128Z,99.10
2018-06-28T18:09:18.503Z,99.30
2018-06-28T18:11:47.827Z,99.50
2018-06-28T18:14:16.964Z,99.30
2018-06-28T18:16:46.075Z,99.40
2018-06-28T18:19:16.033Z,99.40
2018-06-28T18:24:14.179Z,99.40
2018-06-28T18:26:43.473Z,99.70
2018-06-28T18:29:13.154Z,99.50
2018-06-28T18:31:43.505Z,99.50
2018-06-28T18:34:13.101Z,99.50
2018-06-28T18:36:42.775Z,99.60
2018-06-28T18:39:12.540Z,99.50
2018-06-28T18:41:41.924Z,99.60
2018-06-28T18:44:11.852Z,99.60
2018-06-28T18:46:40.997Z,99.50
2018-06-28T18:49:11.576Z,99.60
2018-06-28T18:51:41.226Z,99.70
2018-06-28T18:54:10.896Z,99.70
2018-06-28T18:56:40.630Z,99.60
2018-06-28T18:59:10.302Z,99.60
2018-06-28T19:01:40.032Z,99.60
2018-06-28T19:04:09.661Z,99.70
2018-06-28T19:06:38.822Z,99.70
2018-06-28T19:09:11.748Z,99.70
2018-06-28T19:11:41.875Z,99.80
2018-06-28T19:14:17.975Z,99.90
2018-06-28T19:16:52.086Z,99.90
2018-06-28T19:19:21.147Z,99.90
2018-06-28T19:21:55.749Z,99.90
2018-06-28T19:24:25.099Z,99.90
2018-06-28T19:26:55.184Z,99.90
2018-06-28T19:29:29.541Z,99.90
2018-06-28T19:32:04.112Z,99.90
2018-06-28T19:34:33.228Z,99.90
2018-06-28T19:37:02.289Z,99.90
2018-06-28T19:39:36.513Z,99.90
2018-06-28T19:43:12.120Z,99.90
2018-06-28T19:45:41.171Z,99.90
2018-06-28T19:48:10.912Z,99.90
2018-06-28T19:50:45.326Z,99.90
2018-06-28T19:53:15.641Z,99.90
2018-06-28T19:55:44.783Z,99.90
2018-06-28T19:58:13.799Z,99.90
2018-06-28T20:00:48.445Z,99.90
2018-06-28T20:03:22.821Z,99.90
2018-06-28T20:05:51.997Z,99.90
2018-06-28T20:08:21.553Z,99.90
2018-06-28T20:10:50.796Z,99.90
2018-06-28T20:13:25.136Z,99.90
2018-06-28T20:15:59.627Z,99.90
2018-06-28T20:18:33.893Z,99.90
2018-06-28T20:21:03.572Z,99.90
2018-06-28T20:23:32.721Z,99.90
2018-06-28T20:28:41.537Z,99.90
2018-06-28T20:31:15.585Z,99.90
2018-06-28T20:33:50.000Z,99.90
2018-06-28T20:36:19.246Z,99.90
2018-06-28T20:38:48.292Z,99.90
2018-06-28T20:41:17.362Z,99.90
2018-06-28T20:43:46.465Z,99.90
2018-06-28T20:46:16.073Z,99.90
2018-06-28T20:48:45.162Z,99.90
2018-06-28T20:51:14.372Z,99.90
2018-06-28T20:53:43.677Z,99.90
2018-06-28T20:56:12.673Z,99.90
2018-06-28T20:58:42.160Z,99.90
2018-06-28T21:01:11.406Z,99.90
2018-06-28T21:03:40.497Z,99.90
2018-06-28T21:06:09.753Z,99.90
2018-06-28T21:08:39.113Z,99.90
2018-06-28T21:11:08.517Z,99.90
2018-06-28T21:13:37.903Z,99.90
2018-06-28T21:16:07.038Z,99.90
2018-06-28T21:18:36.421Z,99.90
2018-06-28T21:21:05.539Z,99.90
2018-06-28T21:23:34.675Z,99.90
2018-06-28T21:26:03.827Z,99.90
2018-06-28T21:28:33.643Z,99.90
2018-06-28T21:31:02.733Z,99.90
2018-06-28T21:33:32.360Z,99.90
2018-06-28T21:36:01.848Z,99.90
2018-06-28T21:38:31.374Z,99.90
2018-06-28T21:41:00.486Z,99.90
2018-06-28T21:43:29.665Z,99.90
2018-06-28T21:45:59.084Z,99.90
2018-06-28T21:48:28.372Z,99.90
2018-06-28T21:50:57.456Z,99.90
2018-06-28T21:53:27.392Z,99.90
2018-06-28T21:55:57.176Z,99.90
2018-06-28T21:58:26.770Z,99.90
2018-06-28T22:00:56.787Z,99.90
2018-06-28T22:03:25.977Z,99.90
2018-06-28T22:05:55.112Z,99.90
2018-06-28T22:08:24.456Z,99.90
2018-06-28T22:10:53.942Z,99.90
2018-06-28T22:13:23.694Z,99.90
2018-06-28T22:15:53.237Z,99.90
2018-06-28T22:18:22.216Z,99.90
2018-06-28T22:20:51.868Z,99.90
2018-06-28T22:23:21.109Z,99.90
2018-06-28T22:25:50.213Z,99.90
2018-06-28T22:28:20.157Z,99.90
2018-06-28T22:30:49.440Z,99.90
2018-06-28T22:33:18.633Z,99.90
2018-06-28T22:35:47.725Z,99.90
2018-06-28T22:38:16.901Z,99.90
2018-06-28T22:40:46.321Z,99.90
2018-06-28T22:43:15.642Z,99.90
2018-06-28T22:45:44.620Z,99.90
2018-06-28T22:48:13.700Z,99.90
2018-06-28T22:50:42.729Z,99.90
2018-06-28T22:53:11.800Z,99.90
2018-06-28T22:55:40.911Z,99.90
2018-06-28T22:58:09.970Z,99.90
2018-06-28T23:00:39.070Z,99.90
2018-06-28T23:03:08.999Z,99.90
2018-06-28T23:05:37.988Z,99.90
2018-06-28T23:08:07.085Z,99.90
2018-06-28T23:10:36.931Z,99.90
2018-06-28T23:13:06.048Z,99.90
2018-06-28T23:15:35.065Z,99.90
2018-06-28T23:18:04.077Z,99.90
2018-06-28T23:20:33.177Z,99.90
2018-06-28T23:23:02.657Z,99.90
2018-06-28T23:25:31.918Z,99.90
2018-06-28T23:28:01.311Z,99.90
2018-06-28T23:30:31.164Z,99.90
2018-06-28T23:33:00.711Z,99.90
2018-06-28T23:35:29.771Z,99.90
2018-06-28T23:37:58.917Z,99.90
2018-06-28T23:40:28.083Z,99.90
2018-06-28T23:42:57.216Z,99.90
2018-06-28T23:45:26.869Z,99.90
2018-06-28T23:47:55.912Z,99.90
2018-06-28T23:50:25.108Z,99.90
2018-06-28T23:55:22.859Z,99.90
2018-06-28T23:57:51.949Z,99.90
